sensor_id;sensor_type;location;lat;lon;timestamp;P1;durP1;ratioP1;P2;durP2;ratioP2
18748;SDS011;9503;53.560;10.246;2023-10-08T00:02:04;8.87;;;2.60;;
18748;SDS011;9503;53.560;10.246;2023-10-08T00:04:31;10.80;;;2.20;;
18748;SDS011;9503;53.560;10.246;2023-10-08T00:07:03;8.27;;;2.60;;
18748;SDS011;9503;53.560;10.246;2023-10-08T00:09:32;7.17;;;2.43;;
18748;SDS011;9503;53.560;10.246;2023-10-08T00:12:01;6.83;;;2.20;;
18748;SDS011;9503;53.560;10.246;2023-10-08T00:14:28;7.40;;;2.30;;
18748;SDS011;9503;53.560;10.246;2023-10-08T00:16:55;11.33;;;2.77;;
18748;SDS011;9503;53.560;10.246;2023-10-08T00:19:20;5.53;;;2.10;;
18748;SDS011;9503;53.560;10.246;2023-10-08T00:21:47;11.07;;;2.67;;
18748;SDS011;9503;53.560;10.246;2023-10-08T00:24:16;4.73;;;2.40;;
18748;SDS011;9503;53.560;10.246;2023-10-08T00:26:43;8.40;;;2.83;;
18748;SDS011;9503;53.560;10.246;2023-10-08T00:29:10;8.13;;;2.10;;
18748;SDS011;9503;53.560;10.246;2023-10-08T00:31:46;9.17;;;2.40;;
18748;SDS011;9503;53.560;10.246;2023-10-08T00:34:15;7.93;;;2.50;;
18748;SDS011;9503;53.560;10.246;2023-10-08T00:36:45;5.87;;;2.50;;
18748;SDS011;9503;53.560;10.246;2023-10-08T00:39:13;8.80;;;2.50;;
18748;SDS011;9503;53.560;10.246;2023-10-08T00:41:49;7.77;;;2.90;;
18748;SDS011;9503;53.560;10.246;2023-10-08T00:44:19;12.10;;;3.63;;
18748;SDS011;9503;53.560;10.246;2023-10-08T00:46:48;11.43;;;3.23;;
18748;SDS011;9503;53.560;10.246;2023-10-08T00:49:15;9.47;;;2.73;;
18748;SDS011;9503;53.560;10.246;2023-10-08T00:52:00;9.20;;;2.57;;
18748;SDS011;9503;53.560;10.246;2023-10-08T00:54:50;9.67;;;3.37;;
18748;SDS011;9503;53.560;10.246;2023-10-08T00:57:34;9.80;;;2.63;;
18748;SDS011;9503;53.560;10.246;2023-10-08T01:00:03;11.90;;;3.53;;
18748;SDS011;9503;53.560;10.246;2023-10-08T01:02:40;11.43;;;3.27;;
18748;SDS011;9503;53.560;10.246;2023-10-08T01:05:12;8.80;;;3.17;;
18748;SDS011;9503;53.560;10.246;2023-10-08T01:07:43;13.33;;;2.60;;
18748;SDS011;9503;53.560;10.246;2023-10-08T01:10:14;12.90;;;3.30;;
18748;SDS011;9503;53.560;10.246;2023-10-08T01:12:46;8.87;;;2.57;;
18748;SDS011;9503;53.560;10.246;2023-10-08T01:15:29;8.47;;;2.77;;
18748;SDS011;9503;53.560;10.246;2023-10-08T01:17:56;14.60;;;3.20;;
18748;SDS011;9503;53.560;10.246;2023-10-08T01:20:25;12.87;;;3.47;;
18748;SDS011;9503;53.560;10.246;2023-10-08T01:23:00;12.97;;;3.57;;
18748;SDS011;9503;53.560;10.246;2023-10-08T01:25:35;11.57;;;2.80;;
18748;SDS011;9503;53.560;10.246;2023-10-08T01:28:05;9.50;;;3.27;;
18748;SDS011;9503;53.560;10.246;2023-10-08T01:30:39;12.17;;;3.07;;
18748;SDS011;9503;53.560;10.246;2023-10-08T01:33:07;11.33;;;3.40;;
18748;SDS011;9503;53.560;10.246;2023-10-08T01:35:38;12.73;;;3.27;;
18748;SDS011;9503;53.560;10.246;2023-10-08T01:38:06;9.83;;;3.00;;
18748;SDS011;9503;53.560;10.246;2023-10-08T01:40:34;11.30;;;3.07;;
18748;SDS011;9503;53.560;10.246;2023-10-08T01:43:00;12.27;;;2.77;;
18748;SDS011;9503;53.560;10.246;2023-10-08T01:45:29;8.77;;;2.77;;
18748;SDS011;9503;53.560;10.246;2023-10-08T01:47:57;11.80;;;3.20;;
18748;SDS011;9503;53.560;10.246;2023-10-08T01:50:23;10.97;;;2.90;;
18748;SDS011;9503;53.560;10.246;2023-10-08T01:52:51;6.37;;;3.40;;
18748;SDS011;9503;53.560;10.246;2023-10-08T01:55:19;11.27;;;2.83;;
18748;SDS011;9503;53.560;10.246;2023-10-08T01:57:47;9.50;;;2.53;;
18748;SDS011;9503;53.560;10.246;2023-10-08T02:00:16;8.87;;;2.80;;
18748;SDS011;9503;53.560;10.246;2023-10-08T02:02:44;5.77;;;2.17;;
18748;SDS011;9503;53.560;10.246;2023-10-08T02:05:12;9.30;;;2.57;;
18748;SDS011;9503;53.560;10.246;2023-10-08T02:07:40;7.47;;;2.70;;
18748;SDS011;9503;53.560;10.246;2023-10-08T02:10:07;8.73;;;2.73;;
18748;SDS011;9503;53.560;10.246;2023-10-08T02:12:37;6.37;;;2.70;;
18748;SDS011;9503;53.560;10.246;2023-10-08T02:15:04;6.37;;;2.13;;
18748;SDS011;9503;53.560;10.246;2023-10-08T02:17:32;7.77;;;2.20;;
18748;SDS011;9503;53.560;10.246;2023-10-08T02:19:58;8.60;;;2.30;;
18748;SDS011;9503;53.560;10.246;2023-10-08T02:22:25;6.83;;;2.10;;
18748;SDS011;9503;53.560;10.246;2023-10-08T02:24:52;9.10;;;2.73;;
18748;SDS011;9503;53.560;10.246;2023-10-08T02:27:20;10.07;;;2.70;;
18748;SDS011;9503;53.560;10.246;2023-10-08T02:29:48;12.40;;;3.37;;
18748;SDS011;9503;53.560;10.246;2023-10-08T02:32:15;5.70;;;2.20;;
18748;SDS011;9503;53.560;10.246;2023-10-08T02:34:42;7.23;;;2.50;;
18748;SDS011;9503;53.560;10.246;2023-10-08T02:37:08;8.13;;;3.00;;
18748;SDS011;9503;53.560;10.246;2023-10-08T02:39:36;3.60;;;2.40;;
18748;SDS011;9503;53.560;10.246;2023-10-08T02:42:05;14.03;;;2.30;;
18748;SDS011;9503;53.560;10.246;2023-10-08T02:44:35;7.53;;;2.20;;
18748;SDS011;9503;53.560;10.246;2023-10-08T02:47:08;8.80;;;3.00;;
18748;SDS011;9503;53.560;10.246;2023-10-08T02:49:37;11.70;;;2.33;;
18748;SDS011;9503;53.560;10.246;2023-10-08T02:52:05;6.53;;;1.93;;
18748;SDS011;9503;53.560;10.246;2023-10-08T02:54:34;4.13;;;2.60;;
18748;SDS011;9503;53.560;10.246;2023-10-08T02:57:03;4.33;;;2.27;;
18748;SDS011;9503;53.560;10.246;2023-10-08T02:59:35;3.47;;;1.80;;
18748;SDS011;9503;53.560;10.246;2023-10-08T03:02:06;7.43;;;2.17;;
18748;SDS011;9503;53.560;10.246;2023-10-08T03:04:40;10.13;;;2.40;;
18748;SDS011;9503;53.560;10.246;2023-10-08T03:07:08;10.60;;;2.27;;
18748;SDS011;9503;53.560;10.246;2023-10-08T03:09:46;8.13;;;1.70;;
18748;SDS011;9503;53.560;10.246;2023-10-08T03:12:15;9.63;;;2.63;;
18748;SDS011;9503;53.560;10.246;2023-10-08T03:14:42;5.33;;;2.53;;
18748;SDS011;9503;53.560;10.246;2023-10-08T03:17:27;5.63;;;2.10;;
18748;SDS011;9503;53.560;10.246;2023-10-08T03:19:55;9.77;;;2.03;;
18748;SDS011;9503;53.560;10.246;2023-10-08T03:22:26;10.70;;;1.93;;
18748;SDS011;9503;53.560;10.246;2023-10-08T03:24:58;9.00;;;1.87;;
18748;SDS011;9503;53.560;10.246;2023-10-08T03:27:39;6.33;;;1.83;;
18748;SDS011;9503;53.560;10.246;2023-10-08T03:30:07;7.63;;;2.93;;
18748;SDS011;9503;53.560;10.246;2023-10-08T03:32:40;5.67;;;2.37;;
18748;SDS011;9503;53.560;10.246;2023-10-08T03:35:08;8.30;;;1.90;;
18748;SDS011;9503;53.560;10.246;2023-10-08T03:37:35;9.60;;;1.60;;
18748;SDS011;9503;53.560;10.246;2023-10-08T03:40:07;3.97;;;2.23;;
18748;SDS011;9503;53.560;10.246;2023-10-08T03:42:50;9.77;;;2.13;;
18748;SDS011;9503;53.560;10.246;2023-10-08T03:45:16;3.53;;;1.70;;
18748;SDS011;9503;53.560;10.246;2023-10-08T03:47:49;8.20;;;1.77;;
18748;SDS011;9503;53.560;10.246;2023-10-08T03:50:30;3.30;;;1.40;;
18748;SDS011;9503;53.560;10.246;2023-10-08T03:53:05;5.43;;;1.70;;
18748;SDS011;9503;53.560;10.246;2023-10-08T03:55:36;5.87;;;1.80;;
18748;SDS011;9503;53.560;10.246;2023-10-08T03:58:05;4.37;;;1.83;;
18748;SDS011;9503;53.560;10.246;2023-10-08T04:00:36;2.90;;;1.43;;
18748;SDS011;9503;53.560;10.246;2023-10-08T04:03:08;6.57;;;2.07;;
18748;SDS011;9503;53.560;10.246;2023-10-08T04:05:37;5.70;;;1.60;;
18748;SDS011;9503;53.560;10.246;2023-10-08T04:08:24;7.50;;;1.83;;
18748;SDS011;9503;53.560;10.246;2023-10-08T04:11:07;3.97;;;1.93;;
18748;SDS011;9503;53.560;10.246;2023-10-08T04:13:47;6.47;;;1.80;;
18748;SDS011;9503;53.560;10.246;2023-10-08T04:16:13;3.23;;;1.40;;
18748;SDS011;9503;53.560;10.246;2023-10-08T04:18:45;9.90;;;1.60;;
18748;SDS011;9503;53.560;10.246;2023-10-08T04:21:15;2.93;;;1.50;;
18748;SDS011;9503;53.560;10.246;2023-10-08T04:23:45;4.97;;;1.70;;
18748;SDS011;9503;53.560;10.246;2023-10-08T04:26:16;4.43;;;1.67;;
18748;SDS011;9503;53.560;10.246;2023-10-08T04:28:43;6.87;;;1.70;;
18748;SDS011;9503;53.560;10.246;2023-10-08T04:31:10;3.10;;;1.40;;
18748;SDS011;9503;53.560;10.246;2023-10-08T04:33:51;3.37;;;1.60;;
18748;SDS011;9503;53.560;10.246;2023-10-08T04:36:18;6.43;;;1.30;;
18748;SDS011;9503;53.560;10.246;2023-10-08T04:38:45;3.83;;;1.47;;
18748;SDS011;9503;53.560;10.246;2023-10-08T04:41:13;3.47;;;1.40;;
18748;SDS011;9503;53.560;10.246;2023-10-08T04:43:44;3.40;;;1.60;;
18748;SDS011;9503;53.560;10.246;2023-10-08T04:46:11;3.20;;;1.43;;
18748;SDS011;9503;53.560;10.246;2023-10-08T04:48:47;3.73;;;1.30;;
18748;SDS011;9503;53.560;10.246;2023-10-08T04:51:16;3.40;;;1.60;;
18748;SDS011;9503;53.560;10.246;2023-10-08T04:53:43;2.23;;;1.50;;
18748;SDS011;9503;53.560;10.246;2023-10-08T04:56:12;7.70;;;1.80;;
18748;SDS011;9503;53.560;10.246;2023-10-08T04:58:42;3.70;;;1.53;;
18748;SDS011;9503;53.560;10.246;2023-10-08T05:01:11;4.43;;;1.87;;
18748;SDS011;9503;53.560;10.246;2023-10-08T05:03:45;6.40;;;1.80;;
18748;SDS011;9503;53.560;10.246;2023-10-08T05:06:34;5.90;;;1.50;;
18748;SDS011;9503;53.560;10.246;2023-10-08T05:09:25;3.97;;;1.53;;
18748;SDS011;9503;53.560;10.246;2023-10-08T05:12:04;4.10;;;1.57;;
18748;SDS011;9503;53.560;10.246;2023-10-08T05:14:54;6.30;;;1.83;;
18748;SDS011;9503;53.560;10.246;2023-10-08T05:17:41;2.90;;;1.20;;
18748;SDS011;9503;53.560;10.246;2023-10-08T05:20:22;2.17;;;1.27;;
18748;SDS011;9503;53.560;10.246;2023-10-08T05:23:07;5.20;;;1.20;;
18748;SDS011;9503;53.560;10.246;2023-10-08T05:25:57;4.03;;;1.43;;
18748;SDS011;9503;53.560;10.246;2023-10-08T05:28:34;9.30;;;1.77;;
18748;SDS011;9503;53.560;10.246;2023-10-08T05:31:13;5.30;;;1.60;;
18748;SDS011;9503;53.560;10.246;2023-10-08T05:34:01;6.37;;;1.33;;
18748;SDS011;9503;53.560;10.246;2023-10-08T05:36:40;4.53;;;1.30;;
18748;SDS011;9503;53.560;10.246;2023-10-08T05:39:17;3.40;;;1.40;;
18748;SDS011;9503;53.560;10.246;2023-10-08T05:41:54;5.43;;;1.40;;
18748;SDS011;9503;53.560;10.246;2023-10-08T05:44:38;7.07;;;1.37;;
18748;SDS011;9503;53.560;10.246;2023-10-08T05:47:05;2.17;;;1.40;;
18748;SDS011;9503;53.560;10.246;2023-10-08T05:49:49;5.00;;;1.43;;
18748;SDS011;9503;53.560;10.246;2023-10-08T05:52:40;6.70;;;1.50;;
18748;SDS011;9503;53.560;10.246;2023-10-08T05:55:17;4.00;;;1.40;;
18748;SDS011;9503;53.560;10.246;2023-10-08T05:57:53;4.80;;;1.47;;
18748;SDS011;9503;53.560;10.246;2023-10-08T06:00:38;3.67;;;1.17;;
18748;SDS011;9503;53.560;10.246;2023-10-08T06:03:40;12.10;;;1.53;;
18748;SDS011;9503;53.560;10.246;2023-10-08T06:06:25;3.73;;;1.83;;
18748;SDS011;9503;53.560;10.246;2023-10-08T06:09:03;3.13;;;1.70;;
18748;SDS011;9503;53.560;10.246;2023-10-08T06:12:00;7.70;;;1.67;;
18748;SDS011;9503;53.560;10.246;2023-10-08T06:14:35;4.00;;;1.10;;
18748;SDS011;9503;53.560;10.246;2023-10-08T06:17:19;9.47;;;1.40;;
18748;SDS011;9503;53.560;10.246;2023-10-08T06:20:21;3.43;;;1.60;;
18748;SDS011;9503;53.560;10.246;2023-10-08T06:22:51;4.93;;;1.40;;
18748;SDS011;9503;53.560;10.246;2023-10-08T06:25:24;10.03;;;1.70;;
18748;SDS011;9503;53.560;10.246;2023-10-08T06:27:53;2.57;;;1.30;;
18748;SDS011;9503;53.560;10.246;2023-10-08T06:30:21;5.67;;;1.50;;
18748;SDS011;9503;53.560;10.246;2023-10-08T06:32:48;3.57;;;1.33;;
18748;SDS011;9503;53.560;10.246;2023-10-08T06:35:19;5.47;;;1.53;;
18748;SDS011;9503;53.560;10.246;2023-10-08T06:37:51;2.27;;;1.20;;
18748;SDS011;9503;53.560;10.246;2023-10-08T06:40:21;7.43;;;1.77;;
18748;SDS011;9503;53.560;10.246;2023-10-08T06:43:04;6.27;;;1.43;;
18748;SDS011;9503;53.560;10.246;2023-10-08T06:45:39;4.97;;;1.13;;
18748;SDS011;9503;53.560;10.246;2023-10-08T06:48:07;7.47;;;1.40;;
18748;SDS011;9503;53.560;10.246;2023-10-08T06:50:35;2.23;;;1.53;;
18748;SDS011;9503;53.560;10.246;2023-10-08T06:53:04;1.73;;;1.13;;
18748;SDS011;9503;53.560;10.246;2023-10-08T06:55:33;4.50;;;1.33;;
18748;SDS011;9503;53.560;10.246;2023-10-08T06:58:01;3.70;;;1.33;;
18748;SDS011;9503;53.560;10.246;2023-10-08T07:00:32;7.93;;;1.80;;
18748;SDS011;9503;53.560;10.246;2023-10-08T07:03:04;2.33;;;1.70;;
18748;SDS011;9503;53.560;10.246;2023-10-08T07:05:33;5.43;;;1.47;;
18748;SDS011;9503;53.560;10.246;2023-10-08T07:08:07;4.03;;;1.43;;
18748;SDS011;9503;53.560;10.246;2023-10-08T07:10:34;4.10;;;1.70;;
18748;SDS011;9503;53.560;10.246;2023-10-08T07:13:01;3.37;;;1.73;;
18748;SDS011;9503;53.560;10.246;2023-10-08T07:15:29;3.40;;;1.50;;
18748;SDS011;9503;53.560;10.246;2023-10-08T07:17:56;5.77;;;1.30;;
18748;SDS011;9503;53.560;10.246;2023-10-08T07:20:33;3.50;;;1.63;;
18748;SDS011;9503;53.560;10.246;2023-10-08T07:23:05;2.77;;;1.30;;
18748;SDS011;9503;53.560;10.246;2023-10-08T07:25:44;3.13;;;1.43;;
18748;SDS011;9503;53.560;10.246;2023-10-08T07:28:17;4.40;;;1.60;;
18748;SDS011;9503;53.560;10.246;2023-10-08T07:30:45;3.40;;;1.43;;
18748;SDS011;9503;53.560;10.246;2023-10-08T07:33:14;8.10;;;2.00;;
18748;SDS011;9503;53.560;10.246;2023-10-08T07:35:44;7.87;;;2.00;;
18748;SDS011;9503;53.560;10.246;2023-10-08T07:38:24;3.20;;;1.40;;
18748;SDS011;9503;53.560;10.246;2023-10-08T07:40:54;3.10;;;1.47;;
18748;SDS011;9503;53.560;10.246;2023-10-08T07:43:22;2.47;;;1.47;;
18748;SDS011;9503;53.560;10.246;2023-10-08T07:45:49;1.83;;;1.50;;
18748;SDS011;9503;53.560;10.246;2023-10-08T07:48:19;2.13;;;1.50;;
18748;SDS011;9503;53.560;10.246;2023-10-08T07:50:48;4.93;;;1.40;;
18748;SDS011;9503;53.560;10.246;2023-10-08T07:53:16;3.23;;;1.63;;
18748;SDS011;9503;53.560;10.246;2023-10-08T07:55:48;2.70;;;1.20;;
18748;SDS011;9503;53.560;10.246;2023-10-08T07:58:16;9.27;;;1.50;;
18748;SDS011;9503;53.560;10.246;2023-10-08T08:00:45;5.43;;;1.30;;
18748;SDS011;9503;53.560;10.246;2023-10-08T08:03:20;2.20;;;1.20;;
18748;SDS011;9503;53.560;10.246;2023-10-08T08:05:47;4.93;;;1.57;;
18748;SDS011;9503;53.560;10.246;2023-10-08T08:08:18;4.57;;;1.20;;
18748;SDS011;9503;53.560;10.246;2023-10-08T08:10:49;5.40;;;1.30;;
18748;SDS011;9503;53.560;10.246;2023-10-08T08:13:23;2.00;;;0.90;;
18748;SDS011;9503;53.560;10.246;2023-10-08T08:15:53;2.23;;;1.30;;
18748;SDS011;9503;53.560;10.246;2023-10-08T08:18:23;1.80;;;1.10;;
18748;SDS011;9503;53.560;10.246;2023-10-08T08:20:58;4.80;;;1.37;;
18748;SDS011;9503;53.560;10.246;2023-10-08T08:23:29;2.30;;;1.20;;
18748;SDS011;9503;53.560;10.246;2023-10-08T08:25:58;5.50;;;1.40;;
18748;SDS011;9503;53.560;10.246;2023-10-08T08:28:38;3.20;;;1.50;;
18748;SDS011;9503;53.560;10.246;2023-10-08T08:31:05;2.97;;;1.03;;
18748;SDS011;9503;53.560;10.246;2023-10-08T08:33:38;5.17;;;1.43;;
18748;SDS011;9503;53.560;10.246;2023-10-08T08:36:18;5.20;;;1.60;;
18748;SDS011;9503;53.560;10.246;2023-10-08T08:38:46;2.00;;;1.30;;
18748;SDS011;9503;53.560;10.246;2023-10-08T08:41:15;2.63;;;1.20;;
18748;SDS011;9503;53.560;10.246;2023-10-08T08:43:44;2.63;;;1.77;;
18748;SDS011;9503;53.560;10.246;2023-10-08T08:46:14;7.00;;;1.57;;
18748;SDS011;9503;53.560;10.246;2023-10-08T08:48:40;3.97;;;1.17;;
18748;SDS011;9503;53.560;10.246;2023-10-08T08:51:08;4.57;;;1.13;;
18748;SDS011;9503;53.560;10.246;2023-10-08T08:53:35;3.47;;;1.30;;
18748;SDS011;9503;53.560;10.246;2023-10-08T08:56:02;2.37;;;1.50;;
18748;SDS011;9503;53.560;10.246;2023-10-08T08:58:33;6.40;;;2.20;;
18748;SDS011;9503;53.560;10.246;2023-10-08T09:01:01;2.63;;;1.30;;
18748;SDS011;9503;53.560;10.246;2023-10-08T09:03:30;3.23;;;1.20;;
18748;SDS011;9503;53.560;10.246;2023-10-08T09:05:57;4.53;;;1.33;;
18748;SDS011;9503;53.560;10.246;2023-10-08T09:08:27;4.53;;;1.60;;
18748;SDS011;9503;53.560;10.246;2023-10-08T09:10:57;2.67;;;1.20;;
18748;SDS011;9503;53.560;10.246;2023-10-08T09:13:26;6.30;;;1.10;;
18748;SDS011;9503;53.560;10.246;2023-10-08T09:15:57;2.70;;;1.37;;
18748;SDS011;9503;53.560;10.246;2023-10-08T09:18:29;1.70;;;1.10;;
18748;SDS011;9503;53.560;10.246;2023-10-08T09:21:06;3.23;;;1.20;;
18748;SDS011;9503;53.560;10.246;2023-10-08T09:23:38;3.57;;;1.20;;
18748;SDS011;9503;53.560;10.246;2023-10-08T09:26:08;4.13;;;1.50;;
18748;SDS011;9503;53.560;10.246;2023-10-08T09:28:35;3.38;;;0.85;;
18748;SDS011;9503;53.560;10.246;2023-10-08T09:31:05;2.25;;;1.30;;
18748;SDS011;9503;53.560;10.246;2023-10-08T09:33:32;2.30;;;0.90;;
18748;SDS011;9503;53.560;10.246;2023-10-08T09:35:59;2.88;;;1.40;;
18748;SDS011;9503;53.560;10.246;2023-10-08T09:38:29;3.65;;;1.00;;
18748;SDS011;9503;53.560;10.246;2023-10-08T09:40:56;4.18;;;1.73;;
18748;SDS011;9503;53.560;10.246;2023-10-08T09:43:24;2.03;;;1.20;;
18748;SDS011;9503;53.560;10.246;2023-10-08T09:45:52;2.45;;;1.23;;
18748;SDS011;9503;53.560;10.246;2023-10-08T09:48:24;2.10;;;0.98;;
18748;SDS011;9503;53.560;10.246;2023-10-08T09:50:53;2.95;;;1.10;;
18748;SDS011;9503;53.560;10.246;2023-10-08T09:53:22;1.73;;;1.10;;
18748;SDS011;9503;53.560;10.246;2023-10-08T09:55:55;2.15;;;1.05;;
18748;SDS011;9503;53.560;10.246;2023-10-08T09:58:22;2.10;;;1.13;;
18748;SDS011;9503;53.560;10.246;2023-10-08T10:00:51;1.67;;;1.27;;
18748;SDS011;9503;53.560;10.246;2023-10-08T10:03:19;5.25;;;1.63;;
18748;SDS011;9503;53.560;10.246;2023-10-08T10:05:49;1.80;;;1.27;;
18748;SDS011;9503;53.560;10.246;2023-10-08T10:08:16;3.65;;;1.17;;
18748;SDS011;9503;53.560;10.246;2023-10-08T10:10:43;1.42;;;1.13;;
18748;SDS011;9503;53.560;10.246;2023-10-08T10:13:14;1.48;;;1.05;;
18748;SDS011;9503;53.560;10.246;2023-10-08T10:15:43;2.05;;;1.10;;
18748;SDS011;9503;53.560;10.246;2023-10-08T10:18:12;1.98;;;1.05;;
18748;SDS011;9503;53.560;10.246;2023-10-08T10:20:40;3.92;;;1.10;;
18748;SDS011;9503;53.560;10.246;2023-10-08T10:26:04;2.47;;;0.95;;
18748;SDS011;9503;53.560;10.246;2023-10-08T10:31:48;1.80;;;1.33;;
18748;SDS011;9503;53.560;10.246;2023-10-08T10:34:18;3.25;;;1.00;;
18748;SDS011;9503;53.560;10.246;2023-10-08T10:36:47;1.98;;;1.15;;
18748;SDS011;9503;53.560;10.246;2023-10-08T10:39:17;1.52;;;0.85;;
18748;SDS011;9503;53.560;10.246;2023-10-08T10:41:51;2.42;;;1.40;;
18748;SDS011;9503;53.560;10.246;2023-10-08T10:44:22;1.50;;;0.80;;
18748;SDS011;9503;53.560;10.246;2023-10-08T10:46:49;4.95;;;1.13;;
18748;SDS011;9503;53.560;10.246;2023-10-08T10:49:18;1.73;;;1.00;;
18748;SDS011;9503;53.560;10.246;2023-10-08T10:51:49;1.90;;;1.08;;
18748;SDS011;9503;53.560;10.246;2023-10-08T10:54:24;2.60;;;1.23;;
18748;SDS011;9503;53.560;10.246;2023-10-08T10:56:50;1.05;;;1.02;;
18748;SDS011;9503;53.560;10.246;2023-10-08T10:59:28;1.52;;;1.00;;
18748;SDS011;9503;53.560;10.246;2023-10-08T11:02:02;1.80;;;1.00;;
18748;SDS011;9503;53.560;10.246;2023-10-08T11:04:33;1.77;;;1.10;;
18748;SDS011;9503;53.560;10.246;2023-10-08T11:07:12;2.60;;;0.90;;
18748;SDS011;9503;53.560;10.246;2023-10-08T11:09:42;1.30;;;1.10;;
18748;SDS011;9503;53.560;10.246;2023-10-08T11:12:10;2.53;;;1.65;;
18748;SDS011;9503;53.560;10.246;2023-10-08T11:14:45;1.00;;;0.80;;
18748;SDS011;9503;53.560;10.246;2023-10-08T11:17:13;1.25;;;0.80;;
18748;SDS011;9503;53.560;10.246;2023-10-08T11:19:42;1.35;;;0.75;;
18748;SDS011;9503;53.560;10.246;2023-10-08T11:22:11;2.42;;;1.02;;
18748;SDS011;9503;53.560;10.246;2023-10-08T11:24:43;6.93;;;1.30;;
18748;SDS011;9503;53.560;10.246;2023-10-08T11:27:13;1.30;;;1.10;;
18748;SDS011;9503;53.560;10.246;2023-10-08T11:29:53;3.33;;;1.27;;
18748;SDS011;9503;53.560;10.246;2023-10-08T11:32:23;2.55;;;0.88;;
18748;SDS011;9503;53.560;10.246;2023-10-08T11:34:54;1.00;;;0.95;;
18748;SDS011;9503;53.560;10.246;2023-10-08T11:37:27;4.90;;;0.80;;
18748;SDS011;9503;53.560;10.246;2023-10-08T11:39:56;2.75;;;1.15;;
18748;SDS011;9503;53.560;10.246;2023-10-08T11:42:24;1.45;;;1.10;;
18748;SDS011;9503;53.560;10.246;2023-10-08T11:45:09;0.77;;;0.70;;
18748;SDS011;9503;53.560;10.246;2023-10-08T11:47:49;1.67;;;1.23;;
18748;SDS011;9503;53.560;10.246;2023-10-08T11:50:22;0.90;;;0.90;;
18748;SDS011;9503;53.560;10.246;2023-10-08T11:52:56;1.33;;;0.90;;
18748;SDS011;9503;53.560;10.246;2023-10-08T11:55:28;1.85;;;1.13;;
18748;SDS011;9503;53.560;10.246;2023-10-08T11:57:59;1.70;;;1.00;;
18748;SDS011;9503;53.560;10.246;2023-10-08T12:00:26;0.82;;;0.82;;
18748;SDS011;9503;53.560;10.246;2023-10-08T12:02:53;2.70;;;1.10;;
18748;SDS011;9503;53.560;10.246;2023-10-08T12:05:20;1.95;;;1.00;;
18748;SDS011;9503;53.560;10.246;2023-10-08T12:07:50;3.50;;;1.08;;
18748;SDS011;9503;53.560;10.246;2023-10-08T12:10:17;2.30;;;0.98;;
18748;SDS011;9503;53.560;10.246;2023-10-08T12:12:49;1.23;;;1.10;;
18748;SDS011;9503;53.560;10.246;2023-10-08T12:15:17;1.10;;;0.80;;
18748;SDS011;9503;53.560;10.246;2023-10-08T12:17:48;1.65;;;1.00;;
18748;SDS011;9503;53.560;10.246;2023-10-08T12:20:34;1.70;;;0.85;;
18748;SDS011;9503;53.560;10.246;2023-10-08T12:23:02;1.25;;;1.15;;
18748;SDS011;9503;53.560;10.246;2023-10-08T12:25:29;0.85;;;0.82;;
18748;SDS011;9503;53.560;10.246;2023-10-08T12:27:58;2.13;;;1.00;;
18748;SDS011;9503;53.560;10.246;2023-10-08T12:30:29;1.10;;;0.93;;
18748;SDS011;9503;53.560;10.246;2023-10-08T12:32:57;1.27;;;0.73;;
18748;SDS011;9503;53.560;10.246;2023-10-08T12:35:24;3.85;;;1.15;;
18748;SDS011;9503;53.560;10.246;2023-10-08T12:37:51;3.22;;;1.10;;
18748;SDS011;9503;53.560;10.246;2023-10-08T12:40:19;2.85;;;1.10;;
18748;SDS011;9503;53.560;10.246;2023-10-08T12:42:49;1.83;;;1.00;;
18748;SDS011;9503;53.560;10.246;2023-10-08T12:45:18;1.08;;;0.93;;
18748;SDS011;9503;53.560;10.246;2023-10-08T12:47:47;0.90;;;0.90;;
18748;SDS011;9503;53.560;10.246;2023-10-08T12:50:16;2.20;;;0.70;;
18748;SDS011;9503;53.560;10.246;2023-10-08T12:52:48;1.60;;;0.80;;
18748;SDS011;9503;53.560;10.246;2023-10-08T12:55:20;3.25;;;2.45;;
18748;SDS011;9503;53.560;10.246;2023-10-08T12:57:50;2.47;;;1.10;;
18748;SDS011;9503;53.560;10.246;2023-10-08T13:00:22;2.55;;;1.02;;
18748;SDS011;9503;53.560;10.246;2023-10-08T13:02:49;1.42;;;1.02;;
18748;SDS011;9503;53.560;10.246;2023-10-08T13:05:19;4.78;;;1.25;;
18748;SDS011;9503;53.560;10.246;2023-10-08T13:07:53;2.85;;;0.90;;
18748;SDS011;9503;53.560;10.246;2023-10-08T13:10:21;1.27;;;0.90;;
18748;SDS011;9503;53.560;10.246;2023-10-08T13:12:48;0.98;;;0.80;;
18748;SDS011;9503;53.560;10.246;2023-10-08T13:15:15;1.33;;;0.77;;
18748;SDS011;9503;53.560;10.246;2023-10-08T13:17:43;1.27;;;1.17;;
18748;SDS011;9503;53.560;10.246;2023-10-08T13:20:11;0.95;;;0.90;;
18748;SDS011;9503;53.560;10.246;2023-10-08T13:22:38;1.58;;;0.93;;
18748;SDS011;9503;53.560;10.246;2023-10-08T13:25:05;1.42;;;1.05;;
18748;SDS011;9503;53.560;10.246;2023-10-08T13:27:33;1.50;;;1.02;;
18748;SDS011;9503;53.560;10.246;2023-10-08T13:30:04;3.00;;;0.80;;
18748;SDS011;9503;53.560;10.246;2023-10-08T13:32:34;2.13;;;0.90;;
18748;SDS011;9503;53.560;10.246;2023-10-08T13:35:03;2.20;;;0.82;;
18748;SDS011;9503;53.560;10.246;2023-10-08T13:37:32;1.20;;;1.10;;
18748;SDS011;9503;53.560;10.246;2023-10-08T13:40:00;1.00;;;0.82;;
18748;SDS011;9503;53.560;10.246;2023-10-08T13:42:27;2.97;;;1.00;;
18748;SDS011;9503;53.560;10.246;2023-10-08T13:44:54;1.17;;;0.80;;
18748;SDS011;9503;53.560;10.246;2023-10-08T13:47:22;0.90;;;0.80;;
18748;SDS011;9503;53.560;10.246;2023-10-08T13:49:51;1.42;;;1.05;;
18748;SDS011;9503;53.560;10.246;2023-10-08T13:52:19;1.20;;;1.08;;
18748;SDS011;9503;53.560;10.246;2023-10-08T13:54:51;2.78;;;1.10;;
18748;SDS011;9503;53.560;10.246;2023-10-08T13:57:18;1.17;;;0.80;;
18748;SDS011;9503;53.560;10.246;2023-10-08T13:59:45;1.52;;;1.00;;
18748;SDS011;9503;53.560;10.246;2023-10-08T14:02:13;2.45;;;1.00;;
18748;SDS011;9503;53.560;10.246;2023-10-08T14:04:40;0.80;;;0.80;;
18748;SDS011;9503;53.560;10.246;2023-10-08T14:07:08;0.80;;;0.70;;
18748;SDS011;9503;53.560;10.246;2023-10-08T14:09:38;3.35;;;1.17;;
18748;SDS011;9503;53.560;10.246;2023-10-08T14:12:07;2.42;;;1.00;;
18748;SDS011;9503;53.560;10.246;2023-10-08T14:14:35;0.93;;;0.90;;
18748;SDS011;9503;53.560;10.246;2023-10-08T14:17:06;2.72;;;0.90;;
18748;SDS011;9503;53.560;10.246;2023-10-08T14:19:35;1.60;;;0.90;;
18748;SDS011;9503;53.560;10.246;2023-10-08T14:22:04;4.22;;;0.90;;
18748;SDS011;9503;53.560;10.246;2023-10-08T14:24:33;1.23;;;0.68;;
18748;SDS011;9503;53.560;10.246;2023-10-08T14:27:04;0.98;;;0.90;;
18748;SDS011;9503;53.560;10.246;2023-10-08T14:29:36;2.45;;;1.20;;
18748;SDS011;9503;53.560;10.246;2023-10-08T14:32:05;1.60;;;1.30;;
18748;SDS011;9503;53.560;10.246;2023-10-08T14:34:34;3.00;;;1.50;;
18748;SDS011;9503;53.560;10.246;2023-10-08T14:37:18;2.65;;;1.27;;
18748;SDS011;9503;53.560;10.246;2023-10-08T14:40:03;1.60;;;1.10;;
18748;SDS011;9503;53.560;10.246;2023-10-08T14:42:48;1.88;;;1.20;;
18748;SDS011;9503;53.560;10.246;2023-10-08T14:45:27;3.10;;;1.30;;
18748;SDS011;9503;53.560;10.246;2023-10-08T14:47:56;2.67;;;1.33;;
18748;SDS011;9503;53.560;10.246;2023-10-08T14:50:24;5.53;;;1.80;;
18748;SDS011;9503;53.560;10.246;2023-10-08T14:52:52;4.40;;;1.40;;
18748;SDS011;9503;53.560;10.246;2023-10-08T14:55:19;4.25;;;2.53;;
18748;SDS011;9503;53.560;10.246;2023-10-08T14:57:48;2.70;;;1.33;;
18748;SDS011;9503;53.560;10.246;2023-10-08T15:00:18;4.15;;;1.33;;
18748;SDS011;9503;53.560;10.246;2023-10-08T15:02:49;2.55;;;1.10;;
18748;SDS011;9503;53.560;10.246;2023-10-08T15:05:18;4.88;;;1.17;;
18748;SDS011;9503;53.560;10.246;2023-10-08T15:07:45;1.92;;;1.38;;
18748;SDS011;9503;53.560;10.246;2023-10-08T15:10:11;1.90;;;1.10;;
18748;SDS011;9503;53.560;10.246;2023-10-08T15:12:38;2.63;;;1.23;;
18748;SDS011;9503;53.560;10.246;2023-10-08T15:15:07;1.45;;;1.10;;
18748;SDS011;9503;53.560;10.246;2023-10-08T15:17:39;2.83;;;1.52;;